Date,TemperatureHighF,TemperatureAvgF,TemperatureLowF,DewpointHighF,DewpointAvgF,DewpointLowF,HumidityHigh,HumidityAvg,HumidityLow,PressureMaxIn,PressureMinIn,WindSpeedMaxMPH,WindSpeedAvgMPH,GustSpeedMaxMPH,PrecipitationSumIn
2013-2-1,37.0,27.9,22.3,20.4,16.4,12.5,83,63,43,30.66,30.51,0,0,0,0.00
2013-2-2,39.6,21.6,7.0,16.9,7.7,-1.5,70,56,39,30.77,30.63,0,0,0,0.00
2013-2-3,39.4,22.3,9.7,16.6,6.0,-1.6,69,51,32,30.71,30.42,0,0,0,0.00
2013-2-4,39.4,21.7,4.5,14.7,4.5,-7.0,62,48,33,30.54,30.42,0,0,0,0.00
2013-2-5,43.0,23.7,8.2,18.7,8.2,-3.4,67,52,34,30.57,30.39,0,0,0,0.00
2013-2-6,40.5,25.2,12.2,26.9,16.4,4.9,88,70,42,30.51,30.30,0,0,0,0.00
2013-2-7,37.4,19.8,4.6,17.6,8.7,-1.9,81,63,40,30.60,30.45,0,0,0,0.00
2013-2-8,43.7,25.3,6.4,20.6,9.3,-2.8,71,52,33,30.45,30.09,0,0,0,0.00
2013-2-9,32.7,24.9,16.7,23.6,17.0,7.3,87,72,49,30.15,29.98,0,0,0,0.00
2013-2-10,30.9,17.7,9.7,13.8,6.0,-1.2,74,61,41,30.30,30.12,0,0,0,0.00
2013-2-11,26.6,15.4,5.9,10.9,3.5,-4.2,74,59,42,30.39,30.21,0,0,0,0.00
2013-2-12,27.3,11.0,-3.6,4.9,-3.7,-10.6,67,52,35,30.51,30.39,0,0,0,0.00
2013-2-13,34.9,22.1,13.3,13.8,7.1,-3.2,65,52,41,30.54,30.42,0,0,0,0.00
2013-2-14,34.9,22.7,15.1,21.1,12.8,5.1,77,65,45,30.57,30.45,0,0,0,0.00
2013-2-15,31.1,22.6,9.3,16.9,11.1,-2.2,83,62,42,30.71,30.51,0,0,0,0.00
2013-2-16,41.5,20.0,1.6,15.9,3.3,-8.8,60,49,34,30.71,30.51,0,0,0,0.00
2013-2-17,46.9,24.8,5.4,19.8,6.6,-6.2,77,48,26,30.51,30.12,0,0,0,0.00
2013-2-18,31.8,18.3,1.2,14.4,3.7,-12.5,77,54,36,30.48,30.21,0,0,0,0.00
2013-2-19,35.6,17.3,-2.2,9.2,-0.9,-15.3,56,44,31,30.48,30.15,0,0,0,0.00
2013-2-20,36.3,25.3,13.6,21.2,11.0,0.7,74,55,37,30.21,29.95,0,0,0,0.00
2013-2-21,33.4,25.1,19.8,19.7,17.4,14.0,84,73,49,30.24,30.01,0,0,0,0.00
2013-2-22,31.6,18.2,5.5,14.0,5.8,-3.6,78,59,40,30.39,30.24,0,0,0,0.00
2013-2-23,33.6,19.4,2.5,20.1,8.8,-6.2,84,64,42,30.39,30.09,0,0,0,0.00
2013-2-24,27.1,19.2,7.2,15.3,10.6,-1.9,81,69,54,30.42,30.09,0,0,0,0.00
2013-2-25,34.5,15.0,-1.3,10.3,0.8,-9.2,65,54,35,30.51,30.30,0,0,0,0.00
2013-2-26,27.9,17.8,9.1,12.8,5.6,-3.0,75,59,44,30.48,30.21,0,0,0,0.00
2013-2-27,33.6,17.2,2.5,9.9,2.4,-9.3,75,54,33,30.63,30.45,0,0,0,0.00
2013-2-28,34.5,17.3,-4.4,16.5,1.4,-15.1,75,49,33,30.69,30.57,0,0,0,0.00